23:26
Airports
History
Links
Donate
Help keep this website running!
PayPal
Bitcoin
This page is community maintained. The information is intended for PC simulator navigation or reference.
Always use approved charts for navigation.
ETSF
FURSTENFELDBRUCK
FURSTENFELDBRUCK (ETSF)
F├╝rstenfeldbruck, Bayern, Germany (82256)
(U)
Lat/Lng:48° 12' 20.1" N / 11° 16' 1.8" E
48.205584 / 11.267167
Elevation:1703'ft / 519mMSL
ID / ICAO:ETSF
Runways:1
Longest:09-27
Concrete 2,720m / 8,923ft
METAR05:44 GMT 2007-10-09
Altimeter: 30.24
Visibility: 0.9 statute miles
Wind: 1 knots (from 190°)
Temp: 4°c / 39°f
Humidity: 100.0%

METAR: ETSF 090544Z 19001KT 1500 R27/2300D BR FEW300 04/04 Q1024 BLACKAMB AMB BECMG YLO

(Powered by phpweather)
Airport Radio Frequencies
Tower: 123.7
Nearby VORs <50NM
Nearby NDBs
Runway 09 / 27
Dimensions:2719.8 x 46m 8923' x 151'ft
Surface:Concrete
Runway 09 [A]Runway 27 [B]
Heading:092°TH 272°TH
Lat:
Lng:
48° 12' 22.2"N
11° 14' 55.8"E
48° 12' 18"N
11° 17' 7.8"E
User Notes and Comments
48° 12' 20.1" N / 11° 16' 1.8" E
Distance To
Airport ID:
Nearby Airports
(C) Jesenwang 6.9 NM
EDMJ WSW 251°
(C) Oberpfaffenhofen 8.6 NM
EDMO ( WX ) S 175°
(C) LECHFELD 18.7 NM
ETSL ( WX ) W 265°
(C) Landsberg Lech 19.1 NM
ETSA ( WX ) WSW 240°
(C) Augsburg 21.5 NM
EDMA ( WX ) NW 314°
(C) Muenchen Franz-Josef Strauss 26.0 NM
EDDM ( WX ) ENE 66°
(C) Erding AFB 32.4 NM
ETSE ( WX ) ENE 75°
VFR Chart
Flight Planning at SkyVector.com